sensor_id;sensor_type;location;lat;lon;timestamp;temperature;humidity
18670;DHT22;9464;44.918;9.670;2023-03-01T00:01:25;6.20;1.00
18670;DHT22;9464;44.918;9.670;2023-03-01T00:03:54;6.10;1.00
18670;DHT22;9464;44.918;9.670;2023-03-01T00:06:23;6.10;1.00
18670;DHT22;9464;44.918;9.670;2023-03-01T00:08:51;6.10;1.00
18670;DHT22;9464;44.918;9.670;2023-03-01T00:11:22;6.10;1.00
18670;DHT22;9464;44.918;9.670;2023-03-01T00:13:52;6.10;1.00
18670;DHT22;9464;44.918;9.670;2023-03-01T00:16:24;6.10;1.00
18670;DHT22;9464;44.918;9.670;2023-03-01T00:18:53;6.00;1.00
18670;DHT22;9464;44.918;9.670;2023-03-01T00:21:22;6.00;1.00
18670;DHT22;9464;44.918;9.670;2023-03-01T00:23:51;6.00;1.00
18670;DHT22;9464;44.918;9.670;2023-03-01T00:26:20;6.00;1.00
18670;DHT22;9464;44.918;9.670;2023-03-01T00:28:49;6.00;1.00
18670;DHT22;9464;44.918;9.670;2023-03-01T00:31:19;6.00;1.00
18670;DHT22;9464;44.918;9.670;2023-03-01T00:33:52;5.90;1.00
18670;DHT22;9464;44.918;9.670;2023-03-01T00:36:25;5.90;1.00
18670;DHT22;9464;44.918;9.670;2023-03-01T00:38:55;5.90;1.00
18670;DHT22;9464;44.918;9.670;2023-03-01T00:41:24;5.90;1.00
18670;DHT22;9464;44.918;9.670;2023-03-01T00:43:54;5.90;1.00
18670;DHT22;9464;44.918;9.670;2023-03-01T00:46:24;5.80;1.00
18670;DHT22;9464;44.918;9.670;2023-03-01T00:48:55;5.90;1.00
18670;DHT22;9464;44.918;9.670;2023-03-01T00:51:25;5.80;1.00
18670;DHT22;9464;44.918;9.670;2023-03-01T00:53:56;5.80;1.00
18670;DHT22;9464;44.918;9.670;2023-03-01T00:56:25;5.80;1.00
18670;DHT22;9464;44.918;9.670;2023-03-01T00:58:53;5.70;1.00
18670;DHT22;9464;44.918;9.670;2023-03-01T01:01:23;5.70;1.00
18670;DHT22;9464;44.918;9.670;2023-03-01T01:03:57;5.70;1.00
18670;DHT22;9464;44.918;9.670;2023-03-01T01:06:27;5.70;1.00
18670;DHT22;9464;44.918;9.670;2023-03-01T01:08:57;5.60;1.00
18670;DHT22;9464;44.918;9.670;2023-03-01T01:11:27;5.60;1.00
18670;DHT22;9464;44.918;9.670;2023-03-01T01:13:56;5.50;1.00
18670;DHT22;9464;44.918;9.670;2023-03-01T01:16:25;5.50;1.00
18670;DHT22;9464;44.918;9.670;2023-03-01T01:18:57;5.50;1.00
18670;DHT22;9464;44.918;9.670;2023-03-01T01:21:25;5.50;1.00
18670;DHT22;9464;44.918;9.670;2023-03-01T01:23:55;5.50;1.00
18670;DHT22;9464;44.918;9.670;2023-03-01T01:26:25;5.50;1.00
18670;DHT22;9464;44.918;9.670;2023-03-01T01:28:54;5.50;1.00
18670;DHT22;9464;44.918;9.670;2023-03-01T01:31:22;5.50;1.00
18670;DHT22;9464;44.918;9.670;2023-03-01T01:33:51;5.50;1.00
18670;DHT22;9464;44.918;9.670;2023-03-01T01:36:22;5.40;1.00
18670;DHT22;9464;44.918;9.670;2023-03-01T01:38:50;5.40;1.00
18670;DHT22;9464;44.918;9.670;2023-03-01T01:41:20;5.40;1.00
18670;DHT22;9464;44.918;9.670;2023-03-01T01:44:08;5.40;1.00
18670;DHT22;9464;44.918;9.670;2023-03-01T01:46:39;5.40;1.00
18670;DHT22;9464;44.918;9.670;2023-03-01T01:49:17;5.40;1.00
18670;DHT22;9464;44.918;9.670;2023-03-01T01:51:49;5.40;1.00
18670;DHT22;9464;44.918;9.670;2023-03-01T01:54:21;5.40;1.00
18670;DHT22;9464;44.918;9.670;2023-03-01T01:56:55;5.40;1.00
18670;DHT22;9464;44.918;9.670;2023-03-01T01:59:28;5.40;1.00
18670;DHT22;9464;44.918;9.670;2023-03-01T02:02:00;5.40;1.00
18670;DHT22;9464;44.918;9.670;2023-03-01T02:04:30;5.40;1.00
18670;DHT22;9464;44.918;9.670;2023-03-01T02:07:03;5.40;1.00
18670;DHT22;9464;44.918;9.670;2023-03-01T02:09:33;5.30;1.00
18670;DHT22;9464;44.918;9.670;2023-03-01T02:12:03;5.30;1.00
18670;DHT22;9464;44.918;9.670;2023-03-01T02:14:32;5.30;1.00
18670;DHT22;9464;44.918;9.670;2023-03-01T02:17:00;5.30;1.00
18670;DHT22;9464;44.918;9.670;2023-03-01T02:19:39;5.30;1.00
18670;DHT22;9464;44.918;9.670;2023-03-01T02:22:15;5.30;1.00
18670;DHT22;9464;44.918;9.670;2023-03-01T02:24:56;5.20;1.00
18670;DHT22;9464;44.918;9.670;2023-03-01T02:27:32;5.20;1.00
18670;DHT22;9464;44.918;9.670;2023-03-01T02:30:05;5.20;1.00
18670;DHT22;9464;44.918;9.670;2023-03-01T02:32:34;5.20;1.00
18670;DHT22;9464;44.918;9.670;2023-03-01T02:35:02;5.20;1.00
18670;DHT22;9464;44.918;9.670;2023-03-01T02:37:35;5.20;1.00
18670;DHT22;9464;44.918;9.670;2023-03-01T02:40:08;5.20;1.00
18670;DHT22;9464;44.918;9.670;2023-03-01T02:42:43;5.20;1.00
18670;DHT22;9464;44.918;9.670;2023-03-01T02:45:15;5.10;1.00
18670;DHT22;9464;44.918;9.670;2023-03-01T02:47:43;5.10;1.00
18670;DHT22;9464;44.918;9.670;2023-03-01T02:50:22;5.10;1.00
18670;DHT22;9464;44.918;9.670;2023-03-01T02:52:59;5.10;1.00
18670;DHT22;9464;44.918;9.670;2023-03-01T02:55:28;5.10;1.00
18670;DHT22;9464;44.918;9.670;2023-03-01T02:57:57;5.10;1.00
18670;DHT22;9464;44.918;9.670;2023-03-01T03:00:30;5.10;1.00
18670;DHT22;9464;44.918;9.670;2023-03-01T03:03:00;5.10;1.00
18670;DHT22;9464;44.918;9.670;2023-03-01T03:05:30;5.10;1.00
18670;DHT22;9464;44.918;9.670;2023-03-01T03:08:00;5.10;1.00
18670;DHT22;9464;44.918;9.670;2023-03-01T03:10:31;5.10;1.00
18670;DHT22;9464;44.918;9.670;2023-03-01T03:13:01;5.10;1.00
18670;DHT22;9464;44.918;9.670;2023-03-01T03:15:31;5.10;1.00
18670;DHT22;9464;44.918;9.670;2023-03-01T03:18:04;5.10;1.00
18670;DHT22;9464;44.918;9.670;2023-03-01T03:20:33;5.10;1.00
18670;DHT22;9464;44.918;9.670;2023-03-01T03:23:01;5.10;1.00
18670;DHT22;9464;44.918;9.670;2023-03-01T03:25:29;5.10;1.00
18670;DHT22;9464;44.918;9.670;2023-03-01T03:27:58;5.10;1.00
18670;DHT22;9464;44.918;9.670;2023-03-01T03:30:29;5.10;1.00
18670;DHT22;9464;44.918;9.670;2023-03-01T03:32:59;5.10;1.00
18670;DHT22;9464;44.918;9.670;2023-03-01T03:35:29;5.00;1.00
18670;DHT22;9464;44.918;9.670;2023-03-01T03:37:59;5.00;1.00
18670;DHT22;9464;44.918;9.670;2023-03-01T03:40:33;5.00;1.00
18670;DHT22;9464;44.918;9.670;2023-03-01T03:43:01;5.00;1.00
18670;DHT22;9464;44.918;9.670;2023-03-01T03:45:30;5.00;1.00
18670;DHT22;9464;44.918;9.670;2023-03-01T03:48:02;5.00;1.00
18670;DHT22;9464;44.918;9.670;2023-03-01T03:50:32;5.00;1.00
18670;DHT22;9464;44.918;9.670;2023-03-01T03:53:01;5.00;1.00
18670;DHT22;9464;44.918;9.670;2023-03-01T03:55:30;5.00;1.00
18670;DHT22;9464;44.918;9.670;2023-03-01T03:58:01;5.00;1.00
18670;DHT22;9464;44.918;9.670;2023-03-01T04:00:36;5.00;1.00
18670;DHT22;9464;44.918;9.670;2023-03-01T04:03:06;5.00;1.00
18670;DHT22;9464;44.918;9.670;2023-03-01T04:05:35;5.00;1.00
18670;DHT22;9464;44.918;9.670;2023-03-01T04:08:04;5.00;1.00
18670;DHT22;9464;44.918;9.670;2023-03-01T04:10:36;5.00;1.00
18670;DHT22;9464;44.918;9.670;2023-03-01T04:13:05;5.00;1.00
18670;DHT22;9464;44.918;9.670;2023-03-01T04:15:35;5.00;1.00
18670;DHT22;9464;44.918;9.670;2023-03-01T04:18:03;5.00;1.00
18670;DHT22;9464;44.918;9.670;2023-03-01T04:20:35;5.00;1.00
18670;DHT22;9464;44.918;9.670;2023-03-01T04:23:05;5.00;1.00
18670;DHT22;9464;44.918;9.670;2023-03-01T04:25:41;5.00;1.00
18670;DHT22;9464;44.918;9.670;2023-03-01T04:28:10;5.00;1.00
18670;DHT22;9464;44.918;9.670;2023-03-01T04:30:38;5.00;1.00
18670;DHT22;9464;44.918;9.670;2023-03-01T04:33:09;5.00;1.00
18670;DHT22;9464;44.918;9.670;2023-03-01T04:35:39;5.00;1.00
18670;DHT22;9464;44.918;9.670;2023-03-01T04:38:08;5.10;1.00
18670;DHT22;9464;44.918;9.670;2023-03-01T04:40:37;5.10;1.00
18670;DHT22;9464;44.918;9.670;2023-03-01T04:43:05;5.10;1.00
18670;DHT22;9464;44.918;9.670;2023-03-01T04:45:33;5.10;1.00
18670;DHT22;9464;44.918;9.670;2023-03-01T04:48:03;5.10;1.00
18670;DHT22;9464;44.918;9.670;2023-03-01T04:50:31;5.10;1.00
18670;DHT22;9464;44.918;9.670;2023-03-01T04:53:01;5.10;1.00
18670;DHT22;9464;44.918;9.670;2023-03-01T04:55:29;5.10;1.00
18670;DHT22;9464;44.918;9.670;2023-03-01T04:57:58;5.10;1.00
18670;DHT22;9464;44.918;9.670;2023-03-01T05:00:26;5.10;1.00
18670;DHT22;9464;44.918;9.670;2023-03-01T05:02:57;5.10;1.00
18670;DHT22;9464;44.918;9.670;2023-03-01T05:05:28;5.10;1.00
18670;DHT22;9464;44.918;9.670;2023-03-01T05:08:01;5.20;1.00
18670;DHT22;9464;44.918;9.670;2023-03-01T05:10:30;5.20;1.00
18670;DHT22;9464;44.918;9.670;2023-03-01T05:12:59;5.20;1.00
18670;DHT22;9464;44.918;9.670;2023-03-01T05:15:29;5.20;1.00
18670;DHT22;9464;44.918;9.670;2023-03-01T05:17:59;5.20;1.00
18670;DHT22;9464;44.918;9.670;2023-03-01T05:20:28;5.20;1.00
18670;DHT22;9464;44.918;9.670;2023-03-01T05:22:58;5.30;1.00
18670;DHT22;9464;44.918;9.670;2023-03-01T05:25:28;5.30;1.00
18670;DHT22;9464;44.918;9.670;2023-03-01T05:28:00;5.30;1.00
18670;DHT22;9464;44.918;9.670;2023-03-01T05:30:31;5.30;1.00
18670;DHT22;9464;44.918;9.670;2023-03-01T05:33:01;5.30;1.00
18670;DHT22;9464;44.918;9.670;2023-03-01T05:35:29;5.30;1.00
18670;DHT22;9464;44.918;9.670;2023-03-01T05:37:59;5.30;1.00
18670;DHT22;9464;44.918;9.670;2023-03-01T05:40:29;5.40;1.00
18670;DHT22;9464;44.918;9.670;2023-03-01T05:42:57;5.40;1.00
18670;DHT22;9464;44.918;9.670;2023-03-01T05:45:26;5.40;1.00
18670;DHT22;9464;44.918;9.670;2023-03-01T05:47:55;5.40;1.00
18670;DHT22;9464;44.918;9.670;2023-03-01T05:50:24;5.50;1.00
18670;DHT22;9464;44.918;9.670;2023-03-01T05:52:59;5.40;1.00
18670;DHT22;9464;44.918;9.670;2023-03-01T05:55:29;5.50;1.00
18670;DHT22;9464;44.918;9.670;2023-03-01T05:57:59;5.50;1.00
18670;DHT22;9464;44.918;9.670;2023-03-01T06:00:28;5.50;1.00
18670;DHT22;9464;44.918;9.670;2023-03-01T06:02:57;5.50;1.00
18670;DHT22;9464;44.918;9.670;2023-03-01T06:05:27;5.50;1.00
18670;DHT22;9464;44.918;9.670;2023-03-01T06:07:58;5.60;1.00
18670;DHT22;9464;44.918;9.670;2023-03-01T06:10:28;5.50;1.00
18670;DHT22;9464;44.918;9.670;2023-03-01T06:12:57;5.50;1.00
18670;DHT22;9464;44.918;9.670;2023-03-01T06:15:26;5.60;1.00
18670;DHT22;9464;44.918;9.670;2023-03-01T06:17:55;5.50;1.00
18670;DHT22;9464;44.918;9.670;2023-03-01T06:20:28;5.60;1.00
18670;DHT22;9464;44.918;9.670;2023-03-01T06:22:56;5.60;1.00
18670;DHT22;9464;44.918;9.670;2023-03-01T06:25:25;5.60;1.00
18670;DHT22;9464;44.918;9.670;2023-03-01T06:27:56;5.70;1.00
18670;DHT22;9464;44.918;9.670;2023-03-01T06:30:25;5.70;1.00
18670;DHT22;9464;44.918;9.670;2023-03-01T06:32:53;5.70;1.00
18670;DHT22;9464;44.918;9.670;2023-03-01T06:35:27;5.70;1.00
18670;DHT22;9464;44.918;9.670;2023-03-01T06:37:59;5.70;1.00
18670;DHT22;9464;44.918;9.670;2023-03-01T06:40:28;5.70;1.00
18670;DHT22;9464;44.918;9.670;2023-03-01T06:42:59;5.70;1.00
18670;DHT22;9464;44.918;9.670;2023-03-01T06:45:27;5.80;1.00
18670;DHT22;9464;44.918;9.670;2023-03-01T06:48:02;5.80;1.00
18670;DHT22;9464;44.918;9.670;2023-03-01T06:50:31;5.80;1.00
18670;DHT22;9464;44.918;9.670;2023-03-01T06:53:00;5.80;1.00
18670;DHT22;9464;44.918;9.670;2023-03-01T06:55:28;5.80;1.00
18670;DHT22;9464;44.918;9.670;2023-03-01T06:57:59;5.80;1.00
18670;DHT22;9464;44.918;9.670;2023-03-01T07:00:27;5.80;1.00
18670;DHT22;9464;44.918;9.670;2023-03-01T07:02:59;5.90;1.00
18670;DHT22;9464;44.918;9.670;2023-03-01T07:05:29;5.90;1.00
18670;DHT22;9464;44.918;9.670;2023-03-01T07:07:57;5.90;1.00
18670;DHT22;9464;44.918;9.670;2023-03-01T07:10:26;5.90;1.00
18670;DHT22;9464;44.918;9.670;2023-03-01T07:12:59;6.00;1.00
18670;DHT22;9464;44.918;9.670;2023-03-01T07:15:27;6.00;1.00
18670;DHT22;9464;44.918;9.670;2023-03-01T07:17:56;6.00;1.00
18670;DHT22;9464;44.918;9.670;2023-03-01T07:20:24;6.00;1.00
18670;DHT22;9464;44.918;9.670;2023-03-01T07:22:53;6.00;1.00
18670;DHT22;9464;44.918;9.670;2023-03-01T07:25:22;6.10;1.00
18670;DHT22;9464;44.918;9.670;2023-03-01T07:27:51;6.10;1.00
18670;DHT22;9464;44.918;9.670;2023-03-01T07:30:21;6.10;1.00
18670;DHT22;9464;44.918;9.670;2023-03-01T07:32:53;6.20;1.00
18670;DHT22;9464;44.918;9.670;2023-03-01T07:35:22;6.20;1.00
18670;DHT22;9464;44.918;9.670;2023-03-01T07:37:50;6.20;1.00
18670;DHT22;9464;44.918;9.670;2023-03-01T07:40:19;6.20;1.00
18670;DHT22;9464;44.918;9.670;2023-03-01T07:42:47;6.30;1.00
18670;DHT22;9464;44.918;9.670;2023-03-01T07:45:16;6.30;1.00
18670;DHT22;9464;44.918;9.670;2023-03-01T07:47:45;6.30;1.00
18670;DHT22;9464;44.918;9.670;2023-03-01T07:50:14;6.30;1.00
18670;DHT22;9464;44.918;9.670;2023-03-01T07:52:44;6.30;1.00
18670;DHT22;9464;44.918;9.670;2023-03-01T07:55:12;6.30;1.00
18670;DHT22;9464;44.918;9.670;2023-03-01T07:57:41;6.40;1.00
18670;DHT22;9464;44.918;9.670;2023-03-01T08:00:11;6.40;1.00
18670;DHT22;9464;44.918;9.670;2023-03-01T08:02:39;6.50;1.00
18670;DHT22;9464;44.918;9.670;2023-03-01T08:05:10;6.50;1.00
18670;DHT22;9464;44.918;9.670;2023-03-01T08:07:38;6.50;1.00
18670;DHT22;9464;44.918;9.670;2023-03-01T08:10:07;6.50;1.00
18670;DHT22;9464;44.918;9.670;2023-03-01T08:12:36;6.60;1.00
18670;DHT22;9464;44.918;9.670;2023-03-01T08:15:05;6.60;1.00
18670;DHT22;9464;44.918;9.670;2023-03-01T08:17:33;6.60;1.00
18670;DHT22;9464;44.918;9.670;2023-03-01T08:20:02;6.60;1.00
18670;DHT22;9464;44.918;9.670;2023-03-01T08:22:34;6.70;1.00
18670;DHT22;9464;44.918;9.670;2023-03-01T08:25:02;6.70;1.00
18670;DHT22;9464;44.918;9.670;2023-03-01T08:27:31;6.70;1.00
18670;DHT22;9464;44.918;9.670;2023-03-01T08:29:59;6.80;1.00
18670;DHT22;9464;44.918;9.670;2023-03-01T08:32:27;6.80;1.00
18670;DHT22;9464;44.918;9.670;2023-03-01T08:34:56;6.80;1.00
18670;DHT22;9464;44.918;9.670;2023-03-01T08:37:24;6.90;1.00
18670;DHT22;9464;44.918;9.670;2023-03-01T08:39:54;6.90;1.00
18670;DHT22;9464;44.918;9.670;2023-03-01T08:42:22;7.00;1.00
18670;DHT22;9464;44.918;9.670;2023-03-01T08:44:51;7.00;1.00
18670;DHT22;9464;44.918;9.670;2023-03-01T08:47:19;7.00;1.00
18670;DHT22;9464;44.918;9.670;2023-03-01T08:49:49;7.10;1.00
18670;DHT22;9464;44.918;9.670;2023-03-01T08:52:17;7.10;1.00
18670;DHT22;9464;44.918;9.670;2023-03-01T08:54:47;7.00;1.00
18670;DHT22;9464;44.918;9.670;2023-03-01T08:57:17;7.10;1.00
18670;DHT22;9464;44.918;9.670;2023-03-01T08:59:45;7.10;1.00
18670;DHT22;9464;44.918;9.670;2023-03-01T09:02:15;7.20;1.00
18670;DHT22;9464;44.918;9.670;2023-03-01T09:04:44;7.20;1.00
18670;DHT22;9464;44.918;9.670;2023-03-01T09:07:12;7.20;1.00
18670;DHT22;9464;44.918;9.670;2023-03-01T09:09:40;7.20;1.00
18670;DHT22;9464;44.918;9.670;2023-03-01T09:12:08;7.20;1.00
18670;DHT22;9464;44.918;9.670;2023-03-01T09:14:38;7.20;1.00
18670;DHT22;9464;44.918;9.670;2023-03-01T09:17:08;7.30;1.00
18670;DHT22;9464;44.918;9.670;2023-03-01T09:19:36;7.30;1.00
18670;DHT22;9464;44.918;9.670;2023-03-01T09:22:05;7.30;1.00
18670;DHT22;9464;44.918;9.670;2023-03-01T09:24:33;7.30;1.00
18670;DHT22;9464;44.918;9.670;2023-03-01T09:27:01;7.40;1.00
18670;DHT22;9464;44.918;9.670;2023-03-01T09:29:29;7.40;1.00
18670;DHT22;9464;44.918;9.670;2023-03-01T09:31:59;7.40;1.00
18670;DHT22;9464;44.918;9.670;2023-03-01T09:34:27;7.50;1.00
18670;DHT22;9464;44.918;9.670;2023-03-01T09:36:57;7.50;1.00
18670;DHT22;9464;44.918;9.670;2023-03-01T09:39:29;7.50;1.00
18670;DHT22;9464;44.918;9.670;2023-03-01T09:42:00;7.50;1.00
18670;DHT22;9464;44.918;9.670;2023-03-01T09:44:35;7.50;1.00
18670;DHT22;9464;44.918;9.670;2023-03-01T09:47:09;7.60;1.00
18670;DHT22;9464;44.918;9.670;2023-03-01T09:49:41;7.60;1.00
18670;DHT22;9464;44.918;9.670;2023-03-01T09:52:23;7.60;1.00
18670;DHT22;9464;44.918;9.670;2023-03-01T09:54:55;7.50;1.00
18670;DHT22;9464;44.918;9.670;2023-03-01T09:57:30;7.50;1.00
18670;DHT22;9464;44.918;9.670;2023-03-01T10:00:24;7.50;1.00
18670;DHT22;9464;44.918;9.670;2023-03-01T10:02:59;7.50;1.00
18670;DHT22;9464;44.918;9.670;2023-03-01T10:05:39;7.50;1.00
18670;DHT22;9464;44.918;9.670;2023-03-01T10:08:26;7.60;1.00
18670;DHT22;9464;44.918;9.670;2023-03-01T10:10:58;7.70;1.00
18670;DHT22;9464;44.918;9.670;2023-03-01T10:13:44;7.70;1.00
18670;DHT22;9464;44.918;9.670;2023-03-01T10:16:17;7.70;1.00
18670;DHT22;9464;44.918;9.670;2023-03-01T10:18:54;7.70;1.00
18670;DHT22;9464;44.918;9.670;2023-03-01T10:21:25;7.70;1.00
18670;DHT22;9464;44.918;9.670;2023-03-01T10:23:55;7.70;1.00
18670;DHT22;9464;44.918;9.670;2023-03-01T10:26:38;7.80;1.00
18670;DHT22;9464;44.918;9.670;2023-03-01T10:29:09;7.90;1.00
18670;DHT22;9464;44.918;9.670;2023-03-01T10:31:40;7.80;1.00
18670;DHT22;9464;44.918;9.670;2023-03-01T10:34:17;7.90;1.00
18670;DHT22;9464;44.918;9.670;2023-03-01T10:36:48;8.00;1.00
18670;DHT22;9464;44.918;9.670;2023-03-01T10:39:20;8.00;1.00
18670;DHT22;9464;44.918;9.670;2023-03-01T10:41:55;8.10;1.00
18670;DHT22;9464;44.918;9.670;2023-03-01T10:44:40;8.10;1.00
18670;DHT22;9464;44.918;9.670;2023-03-01T10:47:20;8.20;1.00
18670;DHT22;9464;44.918;9.670;2023-03-01T10:49:57;8.20;1.00
18670;DHT22;9464;44.918;9.670;2023-03-01T10:52:29;8.20;1.00
18670;DHT22;9464;44.918;9.670;2023-03-01T10:54:59;8.20;1.00
18670;DHT22;9464;44.918;9.670;2023-03-01T10:57:36;8.20;1.00
18670;DHT22;9464;44.918;9.670;2023-03-01T11:00:25;8.20;1.00
18670;DHT22;9464;44.918;9.670;2023-03-01T11:03:11;8.20;1.00
18670;DHT22;9464;44.918;9.670;2023-03-01T11:06:00;8.20;1.00
18670;DHT22;9464;44.918;9.670;2023-03-01T11:08:37;8.20;1.00
18670;DHT22;9464;44.918;9.670;2023-03-01T11:13:56;8.20;1.00
18670;DHT22;9464;44.918;9.670;2023-03-01T11:16:27;8.30;1.00
18670;DHT22;9464;44.918;9.670;2023-03-01T11:18:57;8.20;1.00
18670;DHT22;9464;44.918;9.670;2023-03-01T11:21:28;8.10;1.00
18670;DHT22;9464;44.918;9.670;2023-03-01T11:24:00;8.10;1.00
18670;DHT22;9464;44.918;9.670;2023-03-01T11:26:30;8.20;1.00
18670;DHT22;9464;44.918;9.670;2023-03-01T11:29:05;8.20;1.00
18670;DHT22;9464;44.918;9.670;2023-03-01T11:31:34;8.30;1.00
18670;DHT22;9464;44.918;9.670;2023-03-01T11:34:12;8.30;1.00
18670;DHT22;9464;44.918;9.670;2023-03-01T11:36:48;8.30;1.00
18670;DHT22;9464;44.918;9.670;2023-03-01T11:39:27;8.30;1.00
18670;DHT22;9464;44.918;9.670;2023-03-01T11:42:04;8.30;1.00
18670;DHT22;9464;44.918;9.670;2023-03-01T11:44:47;8.40;1.00
18670;DHT22;9464;44.918;9.670;2023-03-01T11:47:38;8.40;1.00
18670;DHT22;9464;44.918;9.670;2023-03-01T11:50:24;8.40;1.00
18670;DHT22;9464;44.918;9.670;2023-03-01T11:53:09;8.50;1.00
18670;DHT22;9464;44.918;9.670;2023-03-01T11:55:59;8.50;1.00
18670;DHT22;9464;44.918;9.670;2023-03-01T11:58:44;8.50;1.00
18670;DHT22;9464;44.918;9.670;2023-03-01T12:01:23;8.50;1.00
18670;DHT22;9464;44.918;9.670;2023-03-01T12:07:11;8.50;1.00
18670;DHT22;9464;44.918;9.670;2023-03-01T12:09:53;8.50;1.00
18670;DHT22;9464;44.918;9.670;2023-03-01T12:12:31;8.60;1.00
18670;DHT22;9464;44.918;9.670;2023-03-01T12:15:29;8.60;1.00
18670;DHT22;9464;44.918;9.670;2023-03-01T12:18:18;8.60;1.00
18670;DHT22;9464;44.918;9.670;2023-03-01T12:20:57;8.60;1.00
18670;DHT22;9464;44.918;9.670;2023-03-01T12:23:54;8.60;1.00
18670;DHT22;9464;44.918;9.670;2023-03-01T12:26:31;8.60;1.00
18670;DHT22;9464;44.918;9.670;2023-03-01T12:29:13;8.70;1.00
18670;DHT22;9464;44.918;9.670;2023-03-01T12:32:15;8.70;1.00
18670;DHT22;9464;44.918;9.670;2023-03-01T12:37:47;8.70;1.00
18670;DHT22;9464;44.918;9.670;2023-03-01T12:40:39;8.70;1.00
18670;DHT22;9464;44.918;9.670;2023-03-01T12:43:21;8.70;1.00
18670;DHT22;9464;44.918;9.670;2023-03-01T12:46:01;8.70;1.00
18670;DHT22;9464;44.918;9.670;2023-03-01T12:48:42;8.60;1.00
18670;DHT22;9464;44.918;9.670;2023-03-01T12:51:17;8.60;1.00
18670;DHT22;9464;44.918;9.670;2023-03-01T12:53:49;8.50;1.00
18670;DHT22;9464;44.918;9.670;2023-03-01T12:56:20;8.50;1.00
18670;DHT22;9464;44.918;9.670;2023-03-01T12:58:58;8.50;1.00
18670;DHT22;9464;44.918;9.670;2023-03-01T13:01:35;8.40;1.00
18670;DHT22;9464;44.918;9.670;2023-03-01T13:04:17;8.50;1.00
18670;DHT22;9464;44.918;9.670;2023-03-01T13:06:54;8.50;1.00
18670;DHT22;9464;44.918;9.670;2023-03-01T13:09:34;8.40;1.00
18670;DHT22;9464;44.918;9.670;2023-03-01T13:12:43;8.40;1.00
18670;DHT22;9464;44.918;9.670;2023-03-01T13:15:27;8.40;1.00
18670;DHT22;9464;44.918;9.670;2023-03-01T13:17:57;8.40;1.00
18670;DHT22;9464;44.918;9.670;2023-03-01T13:20:31;8.40;1.00
18670;DHT22;9464;44.918;9.670;2023-03-01T13:23:04;8.40;1.00
18670;DHT22;9464;44.918;9.670;2023-03-01T13:25:33;8.40;1.00
18670;DHT22;9464;44.918;9.670;2023-03-01T13:28:38;8.40;1.00
18670;DHT22;9464;44.918;9.670;2023-03-01T13:31:11;8.40;1.00
18670;DHT22;9464;44.918;9.670;2023-03-01T13:33:59;8.30;1.00
18670;DHT22;9464;44.918;9.670;2023-03-01T13:36:47;8.30;1.00
18670;DHT22;9464;44.918;9.670;2023-03-01T13:39:31;8.20;1.00
18670;DHT22;9464;44.918;9.670;2023-03-01T13:42:00;8.20;1.00
18670;DHT22;9464;44.918;9.670;2023-03-01T13:44:31;8.20;1.00
18670;DHT22;9464;44.918;9.670;2023-03-01T13:47:13;8.10;1.00
18670;DHT22;9464;44.918;9.670;2023-03-01T13:49:47;8.10;1.00
18670;DHT22;9464;44.918;9.670;2023-03-01T13:52:37;8.10;1.00
18670;DHT22;9464;44.918;9.670;2023-03-01T13:55:17;8.10;1.00
18670;DHT22;9464;44.918;9.670;2023-03-01T13:57:48;8.00;1.00
18670;DHT22;9464;44.918;9.670;2023-03-01T14:00:32;7.90;1.00
18670;DHT22;9464;44.918;9.670;2023-03-01T14:03:09;7.90;1.00
18670;DHT22;9464;44.918;9.670;2023-03-01T14:05:39;7.90;1.00
18670;DHT22;9464;44.918;9.670;2023-03-01T14:08:22;7.90;1.00
18670;DHT22;9464;44.918;9.670;2023-03-01T14:10:59;7.90;1.00
18670;DHT22;9464;44.918;9.670;2023-03-01T14:13:39;7.90;1.00
18670;DHT22;9464;44.918;9.670;2023-03-01T14:16:23;7.80;1.00
18670;DHT22;9464;44.918;9.670;2023-03-01T14:19:04;7.80;1.00
18670;DHT22;9464;44.918;9.670;2023-03-01T14:21:40;7.80;1.00
18670;DHT22;9464;44.918;9.670;2023-03-01T14:24:16;7.70;1.00
18670;DHT22;9464;44.918;9.670;2023-03-01T14:26:45;7.70;1.00
18670;DHT22;9464;44.918;9.670;2023-03-01T14:29:35;7.70;1.00
18670;DHT22;9464;44.918;9.670;2023-03-01T14:32:17;7.70;1.00
18670;DHT22;9464;44.918;9.670;2023-03-01T14:34:49;7.70;1.00
18670;DHT22;9464;44.918;9.670;2023-03-01T14:37:20;7.70;1.00
18670;DHT22;9464;44.918;9.670;2023-03-01T14:39:50;7.70;1.00
18670;DHT22;9464;44.918;9.670;2023-03-01T14:42:19;7.70;1.00
18670;DHT22;9464;44.918;9.670;2023-03-01T14:44:50;7.70;1.00
18670;DHT22;9464;44.918;9.670;2023-03-01T14:47:26;7.60;1.00
18670;DHT22;9464;44.918;9.670;2023-03-01T14:50:01;7.70;1.00
18670;DHT22;9464;44.918;9.670;2023-03-01T14:52:34;7.60;1.00
18670;DHT22;9464;44.918;9.670;2023-03-01T14:55:05;7.60;1.00
18670;DHT22;9464;44.918;9.670;2023-03-01T14:57:35;7.60;1.00
18670;DHT22;9464;44.918;9.670;2023-03-01T15:00:06;7.60;1.00
18670;DHT22;9464;44.918;9.670;2023-03-01T15:02:35;7.60;1.00
18670;DHT22;9464;44.918;9.670;2023-03-01T15:05:08;7.60;1.00
18670;DHT22;9464;44.918;9.670;2023-03-01T15:07:40;7.60;1.00
18670;DHT22;9464;44.918;9.670;2023-03-01T15:10:20;7.60;1.00
18670;DHT22;9464;44.918;9.670;2023-03-01T15:12:49;7.60;1.00
18670;DHT22;9464;44.918;9.670;2023-03-01T15:15:36;7.60;1.00
18670;DHT22;9464;44.918;9.670;2023-03-01T15:18:15;7.60;1.00
18670;DHT22;9464;44.918;9.670;2023-03-01T15:20:46;7.60;1.00
18670;DHT22;9464;44.918;9.670;2023-03-01T15:23:20;7.60;1.00
18670;DHT22;9464;44.918;9.670;2023-03-01T15:25:50;7.50;1.00
18670;DHT22;9464;44.918;9.670;2023-03-01T15:28:27;7.50;1.00
18670;DHT22;9464;44.918;9.670;2023-03-01T15:30:58;7.50;1.00
18670;DHT22;9464;44.918;9.670;2023-03-01T15:33:34;7.50;1.00
18670;DHT22;9464;44.918;9.670;2023-03-01T15:36:33;7.50;1.00
18670;DHT22;9464;44.918;9.670;2023-03-01T15:39:04;7.50;1.00
18670;DHT22;9464;44.918;9.670;2023-03-01T15:41:46;7.50;1.00
18670;DHT22;9464;44.918;9.670;2023-03-01T15:44:15;7.50;1.00
18670;DHT22;9464;44.918;9.670;2023-03-01T15:46:46;7.50;1.00
18670;DHT22;9464;44.918;9.670;2023-03-01T15:49:27;7.40;1.00
18670;DHT22;9464;44.918;9.670;2023-03-01T15:51:59;7.40;1.00
18670;DHT22;9464;44.918;9.670;2023-03-01T15:54:28;7.40;1.00
18670;DHT22;9464;44.918;9.670;2023-03-01T15:56:56;7.40;1.00
18670;DHT22;9464;44.918;9.670;2023-03-01T15:59:24;7.30;1.00
18670;DHT22;9464;44.918;9.670;2023-03-01T16:01:52;7.30;1.00
18670;DHT22;9464;44.918;9.670;2023-03-01T16:04:20;7.30;1.00
18670;DHT22;9464;44.918;9.670;2023-03-01T16:06:50;7.30;1.00
18670;DHT22;9464;44.918;9.670;2023-03-01T16:09:24;7.30;1.00
18670;DHT22;9464;44.918;9.670;2023-03-01T16:11:53;7.30;1.00
18670;DHT22;9464;44.918;9.670;2023-03-01T16:14:22;7.30;1.00
18670;DHT22;9464;44.918;9.670;2023-03-01T16:16:50;7.20;1.00
18670;DHT22;9464;44.918;9.670;2023-03-01T16:19:18;7.20;1.00
18670;DHT22;9464;44.918;9.670;2023-03-01T16:21:47;7.20;1.00
18670;DHT22;9464;44.918;9.670;2023-03-01T16:24:16;7.20;1.00
18670;DHT22;9464;44.918;9.670;2023-03-01T16:26:46;7.20;1.00
18670;DHT22;9464;44.918;9.670;2023-03-01T16:29:14;7.20;1.00
18670;DHT22;9464;44.918;9.670;2023-03-01T16:31:43;7.20;1.00
18670;DHT22;9464;44.918;9.670;2023-03-01T16:34:11;7.20;1.00
18670;DHT22;9464;44.918;9.670;2023-03-01T16:36:39;7.20;1.00
18670;DHT22;9464;44.918;9.670;2023-03-01T16:39:09;7.10;1.00
18670;DHT22;9464;44.918;9.670;2023-03-01T16:41:37;7.10;1.00
18670;DHT22;9464;44.918;9.670;2023-03-01T16:44:06;7.10;1.00
18670;DHT22;9464;44.918;9.670;2023-03-01T16:46:35;7.10;1.00
18670;DHT22;9464;44.918;9.670;2023-03-01T16:49:03;7.10;1.00
18670;DHT22;9464;44.918;9.670;2023-03-01T16:51:31;7.00;1.00
18670;DHT22;9464;44.918;9.670;2023-03-01T16:54:01;7.00;1.00
18670;DHT22;9464;44.918;9.670;2023-03-01T16:56:31;7.00;1.00
18670;DHT22;9464;44.918;9.670;2023-03-01T16:59:01;7.00;1.00
18670;DHT22;9464;44.918;9.670;2023-03-01T17:01:33;6.90;1.00